createdAt,value
2017-08-13T00:00:05.472Z,94766.09
2017-08-13T00:02:33.243Z,94769.62
2017-08-13T00:05:00.750Z,94786.56
2017-08-13T00:07:28.300Z,94803.13
2017-08-13T00:09:55.796Z,94808.23
2017-08-13T00:12:23.590Z,94803.45
2017-08-13T00:14:51.389Z,94801.41
2017-08-13T00:17:18.890Z,94816.64
2017-08-13T00:19:46.422Z,94826.98
2017-08-13T00:22:14.177Z,94853.77
2017-08-13T00:24:41.696Z,94865.13
2017-08-13T00:27:09.221Z,94865.55
2017-08-13T00:29:36.763Z,94856.47
2017-08-13T00:32:04.322Z,94854.58
2017-08-13T00:34:31.843Z,94886.35
2017-08-13T00:36:59.398Z,94906.73
2017-08-13T00:39:26.952Z,94909.38
2017-08-13T00:41:54.457Z,94903.16
2017-08-13T00:44:21.976Z,94880.58
2017-08-13T00:46:49.609Z,94874.51
2017-08-13T00:49:17.121Z,94866.83
2017-08-13T00:51:44.666Z,94860.88
2017-08-13T00:54:12.255Z,94857.38
2017-08-13T00:56:39.813Z,94861.89
2017-08-13T00:59:07.356Z,94863.43
2017-08-13T01:01:34.925Z,94872.26
2017-08-13T01:04:02.441Z,94867.87
2017-08-13T01:06:29.942Z,94856.34
2017-08-13T01:08:57.506Z,94848.00
2017-08-13T01:11:25.327Z,94854.60
2017-08-13T01:13:53.072Z,94865.66
2017-08-13T01:16:20.616Z,94843.72
2017-08-13T01:18:48.411Z,94826.18
2017-08-13T01:21:15.936Z,94838.38
2017-08-13T01:23:43.483Z,94844.97
2017-08-13T01:26:10.980Z,94834.33
2017-08-13T01:28:38.483Z,94840.03
2017-08-13T01:31:07.196Z,94842.86
2017-08-13T01:33:34.749Z,94827.83
2017-08-13T01:36:02.253Z,94814.94
2017-08-13T01:38:29.804Z,94802.56
2017-08-13T01:40:57.335Z,94805.11
2017-08-13T01:43:25.094Z,94811.63
2017-08-13T01:45:52.626Z,94820.36
2017-08-13T01:48:20.139Z,94817.11
2017-08-13T01:50:47.671Z,94812.63
2017-08-13T01:53:15.267Z,94809.44
2017-08-13T01:55:42.816Z,94802.61
2017-08-13T01:58:10.572Z,94800.22
2017-08-13T02:00:38.125Z,94797.23
2017-08-13T02:03:05.644Z,94804.47
2017-08-13T02:05:33.453Z,94806.23
2017-08-13T02:08:01.002Z,94802.66
2017-08-13T02:10:28.879Z,94801.45
2017-08-13T02:12:56.609Z,94800.23
2017-08-13T02:15:24.159Z,94810.08
2017-08-13T02:17:51.906Z,94814.11
2017-08-13T02:20:19.447Z,94824.50
2017-08-13T02:22:47.220Z,94827.76
2017-08-13T02:25:14.721Z,94808.20
2017-08-13T02:27:42.507Z,94803.28
2017-08-13T02:30:10.102Z,94805.25
2017-08-13T02:32:37.628Z,94807.47
2017-08-13T02:35:05.365Z,94807.63
2017-08-13T02:37:33.185Z,94808.61
2017-08-13T02:40:00.715Z,94805.50
2017-08-13T02:42:28.217Z,94802.17
2017-08-13T02:44:56.073Z,94790.74
2017-08-13T02:47:23.608Z,94792.09
2017-08-13T02:49:51.123Z,94793.25
2017-08-13T02:52:18.678Z,94790.11
2017-08-13T02:54:46.572Z,94804.25
2017-08-13T02:57:14.096Z,94820.06
2017-08-13T02:59:41.620Z,94823.55
2017-08-13T03:02:09.196Z,94814.69
2017-08-13T03:04:36.712Z,94806.26
2017-08-13T03:07:04.240Z,94797.08
2017-08-13T03:09:31.805Z,94794.70
2017-08-13T03:11:59.305Z,94791.29
2017-08-13T03:14:26.798Z,94784.48
2017-08-13T03:16:54.316Z,94797.14
2017-08-13T03:19:21.817Z,94796.66
2017-08-13T03:21:49.340Z,94794.23
2017-08-13T03:24:16.873Z,94789.94
2017-08-13T03:26:44.627Z,94799.43
2017-08-13T03:29:12.148Z,94798.98
2017-08-13T03:31:39.760Z,94796.83
2017-08-13T03:34:07.266Z,94806.26
2017-08-13T03:36:34.772Z,94803.87
2017-08-13T03:39:02.333Z,94802.67
2017-08-13T03:41:29.833Z,94805.14
2017-08-13T03:43:57.344Z,94812.75
2017-08-13T03:46:25.127Z,94819.43
2017-08-13T03:48:52.635Z,94823.16
2017-08-13T03:51:20.145Z,94828.80
2017-08-13T03:53:47.748Z,94818.91
2017-08-13T03:56:15.245Z,94809.09
2017-08-13T03:58:42.754Z,94802.03
2017-08-13T04:01:10.308Z,94818.06
2017-08-13T04:03:37.832Z,94820.51
2017-08-13T04:06:05.334Z,94826.66
2017-08-13T04:08:32.857Z,94823.17
2017-08-13T04:11:00.375Z,94821.58
2017-08-13T04:13:27.887Z,94824.00
2017-08-13T04:15:55.462Z,94808.61
2017-08-13T04:18:22.990Z,94805.14
2017-08-13T04:20:50.739Z,94793.05
2017-08-13T04:23:18.287Z,94792.98
2017-08-13T04:25:46.037Z,94800.44
2017-08-13T04:28:13.536Z,94802.08
2017-08-13T04:30:41.065Z,94801.81
2017-08-13T04:33:08.597Z,94784.41
2017-08-13T04:35:36.100Z,94785.91
2017-08-13T04:38:03.674Z,94801.30
2017-08-13T04:40:31.491Z,94818.83
2017-08-13T04:42:59.011Z,94844.18
2017-08-13T04:45:26.532Z,94871.34
2017-08-13T04:47:54.048Z,94875.19
2017-08-13T04:50:21.563Z,94861.58
2017-08-13T04:52:49.456Z,94854.80
2017-08-13T04:55:16.964Z,94856.07
2017-08-13T04:57:44.715Z,94859.82
2017-08-13T05:00:12.416Z,94864.48
2017-08-13T05:02:39.957Z,94861.81
2017-08-13T05:05:07.487Z,94852.11
2017-08-13T05:07:35.034Z,94844.62
2017-08-13T05:10:02.784Z,94825.28
2017-08-13T05:12:30.308Z,94824.09
2017-08-13T05:14:57.837Z,94825.19
2017-08-13T05:17:25.359Z,94831.01
2017-08-13T05:19:52.862Z,94833.45
2017-08-13T05:22:20.439Z,94840.57
2017-08-13T05:24:47.945Z,94844.15
2017-08-13T05:27:15.804Z,94841.45
2017-08-13T05:29:43.367Z,94836.66
2017-08-13T05:32:10.897Z,94843.98
2017-08-13T05:34:38.393Z,94849.00
2017-08-13T05:37:05.913Z,94856.30
2017-08-13T05:39:33.735Z,94849.06
2017-08-13T05:42:01.236Z,94848.84
2017-08-13T05:44:29.056Z,94859.39
2017-08-13T05:46:57.164Z,94858.13
2017-08-13T05:49:25.000Z,94848.41
2017-08-13T05:51:52.544Z,94856.46
2017-08-13T05:54:20.087Z,94856.36
2017-08-13T05:56:47.823Z,94852.70
2017-08-13T05:59:15.335Z,94850.78
2017-08-13T06:01:42.888Z,94847.81
2017-08-13T06:04:10.405Z,94856.95
2017-08-13T06:06:37.957Z,94850.99
2017-08-13T06:09:05.520Z,94851.58
2017-08-13T06:11:33.271Z,94850.63
2017-08-13T06:14:00.791Z,94856.84
2017-08-13T06:16:28.337Z,94858.63
2017-08-13T06:18:55.841Z,94859.30
2017-08-13T06:21:23.367Z,94857.14
2017-08-13T06:23:51.315Z,94864.68
2017-08-13T06:26:18.894Z,94851.69
2017-08-13T06:28:46.397Z,94861.34
2017-08-13T06:31:13.979Z,94846.63
2017-08-13T06:33:41.882Z,94846.80
2017-08-13T06:36:09.386Z,94855.45
2017-08-13T06:38:36.941Z,94868.06
2017-08-13T06:41:04.515Z,94871.37
2017-08-13T06:43:32.278Z,94871.86
2017-08-13T06:45:59.830Z,94877.61
2017-08-13T06:48:27.333Z,94880.33
2017-08-13T06:50:54.833Z,94887.56
2017-08-13T06:53:22.383Z,94886.80
2017-08-13T06:55:50.226Z,94895.70
2017-08-13T06:58:17.738Z,94907.98
2017-08-13T07:00:45.314Z,94909.63
2017-08-13T07:03:12.862Z,94915.97
2017-08-13T07:05:40.616Z,94909.39
2017-08-13T07:08:08.196Z,94908.69
2017-08-13T07:10:35.727Z,94906.15
2017-08-13T07:13:03.251Z,94917.25
2017-08-13T07:15:30.812Z,94914.27
2017-08-13T07:17:58.326Z,94921.81
2017-08-13T07:20:26.088Z,94924.29
2017-08-13T07:22:53.631Z,94925.84
2017-08-13T07:25:21.147Z,94935.66
2017-08-13T07:27:48.670Z,94946.64
2017-08-13T07:30:16.266Z,94947.33
2017-08-13T07:32:43.785Z,94958.30
2017-08-13T07:35:11.292Z,94964.17
2017-08-13T07:37:39.155Z,94957.20
2017-08-13T07:40:06.655Z,94959.89
2017-08-13T07:42:34.172Z,94975.11
2017-08-13T07:45:01.713Z,94981.14
2017-08-13T07:47:29.449Z,94987.28
2017-08-13T07:49:57.178Z,94967.75
2017-08-13T07:52:24.751Z,94955.48
2017-08-13T07:54:52.258Z,94957.09
2017-08-13T07:57:19.779Z,94968.39
2017-08-13T07:59:47.365Z,94975.47
2017-08-13T08:02:14.937Z,94977.06
2017-08-13T08:04:42.527Z,94976.18
2017-08-13T08:07:10.079Z,94982.19
2017-08-13T08:09:37.665Z,94987.75
2017-08-13T08:12:05.244Z,94996.52
2017-08-13T08:14:32.779Z,94992.87
2017-08-13T08:17:00.370Z,94998.45
2017-08-13T08:19:27.881Z,94998.98
2017-08-13T08:21:55.396Z,94997.02
2017-08-13T08:24:22.975Z,95000.82
2017-08-13T08:26:50.500Z,95004.94
2017-08-13T08:29:18.244Z,95005.16
2017-08-13T08:31:45.787Z,95009.28
2017-08-13T08:34:13.694Z,95005.53
2017-08-13T08:36:41.192Z,95012.20
2017-08-13T08:39:08.957Z,95000.05
2017-08-13T08:41:36.476Z,95011.53
2017-08-13T08:44:03.996Z,95007.80
2017-08-13T08:46:32.278Z,95005.48
2017-08-13T08:48:59.769Z,95009.20
2017-08-13T08:51:27.281Z,95017.41
2017-08-13T08:53:54.847Z,95020.56
2017-08-13T08:56:22.389Z,95024.37
2017-08-13T08:58:49.890Z,95028.91
2017-08-13T09:01:17.452Z,95036.86
2017-08-13T09:03:44.968Z,95041.80
2017-08-13T09:06:12.489Z,95041.80
2017-08-13T09:08:40.025Z,95036.61
2017-08-13T09:11:07.543Z,95049.97
2017-08-13T09:13:35.065Z,95052.33
2017-08-13T09:16:02.597Z,95056.47
2017-08-13T09:18:30.363Z,95071.09
2017-08-13T09:20:57.873Z,95080.64
2017-08-13T09:23:25.429Z,95072.00
2017-08-13T09:25:52.953Z,95077.01
2017-08-13T09:28:20.475Z,95072.07
2017-08-13T09:30:48.026Z,95075.05
2017-08-13T09:33:15.533Z,95084.61
2017-08-13T09:35:43.057Z,95108.41
2017-08-13T09:38:10.601Z,95120.98
2017-08-13T09:40:38.135Z,95125.67
2017-08-13T09:43:05.634Z,95129.19
2017-08-13T09:45:33.260Z,95111.95
2017-08-13T09:48:01.019Z,95103.15
2017-08-13T09:50:28.535Z,95110.51
2017-08-13T09:52:56.363Z,95126.25
2017-08-13T09:55:24.007Z,95126.12
2017-08-13T09:57:51.750Z,95123.76
2017-08-13T10:00:19.315Z,95125.29
2017-08-13T10:02:46.817Z,95123.24
2017-08-13T10:05:14.687Z,95116.00
2017-08-13T10:07:42.279Z,95124.77
2017-08-13T10:10:10.009Z,95127.95
2017-08-13T10:12:37.753Z,95126.16
2017-08-13T10:15:05.311Z,95115.14
2017-08-13T10:17:32.824Z,95111.27
2017-08-13T10:20:00.600Z,95118.59
2017-08-13T10:22:28.138Z,95117.27
2017-08-13T10:24:55.880Z,95112.41
2017-08-13T10:27:23.378Z,95110.34
2017-08-13T10:29:50.944Z,95111.54
2017-08-13T10:32:18.528Z,95117.09
2017-08-13T10:34:46.344Z,95113.23
2017-08-13T10:37:14.239Z,95118.31
2017-08-13T10:39:41.799Z,95126.25
2017-08-13T10:42:09.325Z,95129.36
2017-08-13T10:44:36.851Z,95115.41
2017-08-13T10:47:04.403Z,95120.25
2017-08-13T10:49:31.927Z,95116.05
2017-08-13T10:51:59.478Z,95120.23
2017-08-13T10:54:27.323Z,95127.98
2017-08-13T10:56:54.904Z,95125.22
2017-08-13T10:59:22.421Z,95136.77
2017-08-13T11:01:50.184Z,95149.23
2017-08-13T11:04:17.703Z,95162.05
2017-08-13T11:06:45.231Z,95163.20
2017-08-13T11:09:12.790Z,95169.28
2017-08-13T11:11:40.308Z,95165.49
2017-08-13T11:14:07.944Z,95159.13
2017-08-13T11:16:35.533Z,95152.50
2017-08-13T11:19:03.049Z,95145.52
2017-08-13T11:21:30.778Z,95161.25
2017-08-13T11:23:58.549Z,95169.08
2017-08-13T11:26:26.072Z,95177.84
2017-08-13T11:28:53.860Z,95187.44
2017-08-13T11:31:21.422Z,95184.38
2017-08-13T11:33:49.147Z,95187.11
2017-08-13T11:36:16.659Z,95180.89
2017-08-13T11:38:44.199Z,95181.63
2017-08-13T11:41:11.704Z,95173.88
2017-08-13T11:43:39.500Z,95178.00
2017-08-13T11:46:07.025Z,95179.53
2017-08-13T11:48:34.859Z,95168.79
2017-08-13T11:51:02.397Z,95171.19
2017-08-13T11:53:29.954Z,95177.55
2017-08-13T11:55:57.483Z,95181.48
2017-08-13T11:58:25.037Z,95189.16
2017-08-13T12:00:52.643Z,95187.79
2017-08-13T12:03:20.138Z,95197.95
2017-08-13T12:05:47.676Z,95190.91
2017-08-13T12:08:15.432Z,95195.34
2017-08-13T12:10:43.195Z,95195.58
2017-08-13T12:13:10.755Z,95195.60
2017-08-13T12:15:38.528Z,95199.30
2017-08-13T12:18:06.050Z,95202.62
2017-08-13T12:20:33.575Z,95192.07
2017-08-13T12:23:01.118Z,95205.39
2017-08-13T12:25:28.633Z,95202.13
2017-08-13T12:27:56.379Z,95208.75
2017-08-13T12:30:24.015Z,95214.32
2017-08-13T12:32:51.514Z,95212.45
2017-08-13T12:35:19.261Z,95203.36
2017-08-13T12:37:46.819Z,95201.31
2017-08-13T12:40:14.341Z,95204.73
2017-08-13T12:42:41.838Z,95200.03
2017-08-13T12:45:09.381Z,95195.84
2017-08-13T12:47:36.898Z,95190.09
2017-08-13T12:50:04.419Z,95191.14
2017-08-13T12:52:32.003Z,95190.80
2017-08-13T12:54:59.538Z,95196.95
2017-08-13T12:57:27.075Z,95202.19
2017-08-13T12:59:54.650Z,95191.20
2017-08-13T13:02:22.240Z,95201.05
2017-08-13T13:04:49.749Z,95197.87
2017-08-13T13:07:17.501Z,95199.66
2017-08-13T13:09:45.092Z,95204.83
2017-08-13T13:12:12.611Z,95208.58
2017-08-13T13:14:40.360Z,95215.28
2017-08-13T13:17:08.133Z,95207.71
2017-08-13T13:19:35.947Z,95213.64
2017-08-13T13:22:03.706Z,95209.72
2017-08-13T13:24:31.503Z,95211.34
2017-08-13T13:26:59.029Z,95209.58
2017-08-13T13:29:26.879Z,95199.73
2017-08-13T13:31:54.422Z,95200.88
2017-08-13T13:34:22.169Z,95209.48
2017-08-13T13:36:49.705Z,95210.05
2017-08-13T13:39:17.260Z,95202.41
2017-08-13T13:41:44.791Z,95210.42
2017-08-13T13:44:12.323Z,95208.53
2017-08-13T13:46:39.920Z,95209.11
2017-08-13T13:49:07.444Z,95216.75
2017-08-13T13:51:35.199Z,95212.81
2017-08-13T13:54:02.786Z,95220.48
2017-08-13T13:56:30.773Z,95227.52
2017-08-13T13:58:58.524Z,95220.09
2017-08-13T14:01:26.071Z,95218.77
2017-08-13T14:03:53.602Z,95232.47
2017-08-13T14:06:21.128Z,95223.28
2017-08-13T14:08:48.919Z,95218.20
2017-08-13T14:11:16.454Z,95220.75
2017-08-13T14:13:43.965Z,95217.78
2017-08-13T14:16:11.575Z,95226.59
2017-08-13T14:18:39.098Z,95217.02
2017-08-13T14:21:06.616Z,95217.80
2017-08-13T14:23:34.245Z,95214.46
2017-08-13T14:26:01.813Z,95220.91
2017-08-13T14:28:29.340Z,95219.36
2017-08-13T14:30:56.988Z,95220.71
2017-08-13T14:33:24.949Z,95227.75
2017-08-13T14:35:52.459Z,95233.99
2017-08-13T14:38:20.016Z,95231.84
2017-08-13T14:40:47.542Z,95231.86
2017-08-13T14:43:15.104Z,95233.22
2017-08-13T14:45:42.651Z,95236.36
2017-08-13T14:48:10.175Z,95228.52
2017-08-13T14:50:37.699Z,95224.02
2017-08-13T14:53:05.311Z,95228.53
2017-08-13T14:55:32.970Z,95231.25
2017-08-13T14:58:00.778Z,95226.95
2017-08-13T15:00:28.428Z,95225.58
2017-08-13T15:02:56.974Z,95217.57
2017-08-13T15:05:24.516Z,95222.27
2017-08-13T15:07:52.115Z,95218.97
2017-08-13T15:10:19.692Z,95230.11
2017-08-13T15:12:47.201Z,95233.25
2017-08-13T15:15:14.796Z,95231.69
2017-08-13T15:17:42.310Z,95244.19
2017-08-13T15:20:09.835Z,95245.73
2017-08-13T15:22:37.422Z,95253.77
2017-08-13T15:25:04.945Z,95260.41
2017-08-13T15:27:32.480Z,95261.89
2017-08-13T15:30:00.021Z,95272.60
2017-08-13T15:32:27.594Z,95282.52
2017-08-13T15:34:55.336Z,95278.88
2017-08-13T15:37:22.907Z,95292.16
2017-08-13T15:39:50.525Z,95296.42
2017-08-13T15:42:18.111Z,95306.41
2017-08-13T15:44:45.660Z,95302.81
2017-08-13T15:47:13.245Z,95309.26
2017-08-13T15:49:40.774Z,95312.02
2017-08-13T15:52:08.299Z,95316.14
2017-08-13T15:54:35.852Z,95310.52
2017-08-13T15:57:03.427Z,95321.01
2017-08-13T15:59:30.977Z,95310.98
2017-08-13T16:01:58.752Z,95313.11
2017-08-13T16:04:26.274Z,95308.80
2017-08-13T16:06:53.780Z,95315.02
2017-08-13T16:09:21.392Z,95316.03
2017-08-13T16:11:48.918Z,95316.42
2017-08-13T16:14:16.445Z,95316.09
2017-08-13T16:16:44.024Z,95313.87
2017-08-13T16:19:11.567Z,95313.57
2017-08-13T16:21:39.124Z,95300.69
2017-08-13T16:24:06.683Z,95308.09
2017-08-13T16:26:34.499Z,95305.77
2017-08-13T16:29:02.509Z,95307.37
2017-08-13T16:31:30.080Z,95313.63
2017-08-13T16:33:57.594Z,95309.52
2017-08-13T16:36:25.456Z,95308.70
2017-08-13T16:38:53.011Z,95304.81
2017-08-13T16:41:20.749Z,95314.69
2017-08-13T16:43:48.292Z,95310.78
2017-08-13T16:46:15.854Z,95322.43
2017-08-13T16:48:43.396Z,95320.34
2017-08-13T16:51:10.904Z,95319.55
2017-08-13T16:53:38.485Z,95328.91
2017-08-13T16:56:06.221Z,95332.64
2017-08-13T16:58:33.783Z,95328.00
2017-08-13T17:01:01.359Z,95335.66
2017-08-13T17:03:28.918Z,95333.28
2017-08-13T17:05:56.683Z,95338.03
2017-08-13T17:08:24.242Z,95329.64
2017-08-13T17:10:51.750Z,95338.81
2017-08-13T17:13:19.279Z,95342.91
2017-08-13T17:15:46.852Z,95339.85
2017-08-13T17:18:14.615Z,95337.13
2017-08-13T17:20:42.134Z,95349.33
2017-08-13T17:23:09.688Z,95355.19
2017-08-13T17:25:37.216Z,95342.30
2017-08-13T17:28:04.747Z,95341.84
2017-08-13T17:30:32.339Z,95353.16
2017-08-13T17:32:59.858Z,95346.91
2017-08-13T17:35:27.382Z,95353.12
2017-08-13T17:37:54.937Z,95351.97
2017-08-13T17:40:22.468Z,95353.99
2017-08-13T17:42:50.279Z,95351.05
2017-08-13T17:45:18.131Z,95354.53
2017-08-13T17:47:45.671Z,95368.67
2017-08-13T17:50:13.212Z,95360.63
2017-08-13T17:52:40.827Z,95367.17
2017-08-13T17:55:08.463Z,95363.39
2017-08-13T17:57:36.054Z,95372.73
2017-08-13T18:00:07.346Z,95365.84
2017-08-13T18:02:34.908Z,95374.31
2017-08-13T18:05:02.445Z,95380.86
2017-08-13T18:07:30.089Z,95383.95
2017-08-13T18:09:57.636Z,95380.64
2017-08-13T18:12:25.344Z,95387.19
2017-08-13T18:14:52.934Z,95386.56
2017-08-13T18:17:20.484Z,95394.94
2017-08-13T18:19:48.048Z,95404.62
2017-08-13T18:22:15.645Z,95410.98
2017-08-13T18:24:43.181Z,95405.03
2017-08-13T18:27:10.728Z,95401.15
2017-08-13T18:29:38.363Z,95404.28
2017-08-13T18:32:06.187Z,95406.25
2017-08-13T18:34:33.865Z,95406.17
2017-08-13T18:37:01.449Z,95410.91
2017-08-13T18:39:29.019Z,95412.34
2017-08-13T18:41:56.611Z,95417.98
2017-08-13T18:44:24.123Z,95417.18
2017-08-13T18:46:51.761Z,95413.30
2017-08-13T18:49:19.439Z,95424.33
2017-08-13T18:51:47.088Z,95423.14
2017-08-13T18:54:14.658Z,95416.48
2017-08-13T18:56:42.294Z,95429.50
2017-08-13T18:59:09.998Z,95428.44
2017-08-13T19:01:37.774Z,95432.42
2017-08-13T19:04:05.498Z,95432.02
2017-08-13T19:06:33.181Z,95430.00
2017-08-13T19:09:00.957Z,95429.98
2017-08-13T19:11:28.725Z,95420.45
2017-08-13T19:13:56.491Z,95432.41
2017-08-13T19:16:24.241Z,95424.88
2017-08-13T19:18:51.918Z,95440.72
2017-08-13T19:21:19.715Z,95442.80
2017-08-13T19:23:48.525Z,95443.03
2017-08-13T19:26:16.788Z,95451.67
2017-08-13T19:28:44.791Z,95441.81
2017-08-13T19:31:13.345Z,95448.97
2017-08-13T19:33:41.051Z,95442.71
2017-08-13T19:36:08.615Z,95444.14
2017-08-13T19:38:36.290Z,95447.21
2017-08-13T19:41:04.195Z,95442.13
2017-08-13T19:43:31.933Z,95442.87
2017-08-13T19:45:59.644Z,95456.69
2017-08-13T19:48:27.274Z,95454.67
2017-08-13T19:50:54.826Z,95446.02
2017-08-13T19:53:22.420Z,95457.75
2017-08-13T19:55:50.079Z,95463.23
2017-08-13T19:58:17.925Z,95463.44
2017-08-13T20:00:45.531Z,95455.88
2017-08-13T20:03:13.087Z,95463.19
2017-08-13T20:05:40.967Z,95465.09
2017-08-13T20:08:08.629Z,95460.72
2017-08-13T20:10:36.236Z,95465.36
2017-08-13T20:13:03.822Z,95468.25
2017-08-13T20:15:31.725Z,95476.11
2017-08-13T20:17:59.241Z,95477.14
2017-08-13T20:20:26.819Z,95474.53
2017-08-13T20:22:54.374Z,95472.63
2017-08-13T20:25:21.900Z,95476.60
2017-08-13T20:27:49.687Z,95482.53
2017-08-13T20:30:17.352Z,95480.48
2017-08-13T20:32:44.894Z,95492.81
2017-08-13T20:35:12.412Z,95493.20
2017-08-13T20:37:39.967Z,95499.48
2017-08-13T20:40:07.568Z,95498.38
2017-08-13T20:42:35.115Z,95501.34
2017-08-13T20:45:03.514Z,95492.08
2017-08-13T20:47:31.336Z,95501.88
2017-08-13T20:49:58.880Z,95508.39
2017-08-13T20:52:26.436Z,95507.92
2017-08-13T20:54:53.958Z,95504.69
2017-08-13T20:57:21.491Z,95517.95
2017-08-13T20:59:49.067Z,95504.72
2017-08-13T21:02:16.607Z,95512.00
2017-08-13T21:04:44.439Z,95510.41
2017-08-13T21:07:11.973Z,95512.82
2017-08-13T21:09:39.521Z,95513.38
2017-08-13T21:12:07.043Z,95506.38
2017-08-13T21:14:34.591Z,95514.00
2017-08-13T21:17:02.165Z,95516.56
2017-08-13T21:19:29.698Z,95518.75
2017-08-13T21:21:57.531Z,95519.32
2017-08-13T21:24:25.079Z,95523.66
2017-08-13T21:26:52.614Z,95518.76
2017-08-13T21:29:20.136Z,95519.89
2017-08-13T21:31:47.702Z,95519.22
2017-08-13T21:34:15.212Z,95518.51
2017-08-13T21:36:42.747Z,95526.31
2017-08-13T21:39:10.379Z,95529.84
2017-08-13T21:41:37.892Z,95524.93
2017-08-13T21:44:05.485Z,95531.34
2017-08-13T21:46:33.036Z,95524.06
2017-08-13T21:49:00.577Z,95511.95
2017-08-13T21:51:28.480Z,95515.12
2017-08-13T21:53:56.040Z,95517.73
2017-08-13T21:56:23.573Z,95514.31
2017-08-13T21:58:51.080Z,95517.95
2017-08-13T22:01:18.632Z,95510.00
2017-08-13T22:03:46.414Z,95516.91
2017-08-13T22:06:13.941Z,95518.45
2017-08-13T22:08:41.470Z,95520.84
2017-08-13T22:11:09.210Z,95504.86
2017-08-13T22:13:36.757Z,95509.47
2017-08-13T22:16:05.182Z,95505.28
2017-08-13T22:18:32.706Z,95505.42
2017-08-13T22:21:00.236Z,95509.25
2017-08-13T22:23:27.795Z,95516.02
2017-08-13T22:25:55.413Z,95505.52
2017-08-13T22:28:22.943Z,95507.75
2017-08-13T22:30:50.501Z,95505.53
2017-08-13T22:33:18.034Z,95510.11
2017-08-13T22:35:45.558Z,95510.17
2017-08-13T22:38:13.092Z,95511.13
2017-08-13T22:40:40.619Z,95513.56
2017-08-13T22:43:08.141Z,95510.66
2017-08-13T22:45:35.721Z,95511.53
2017-08-13T22:48:03.235Z,95518.28
2017-08-13T22:50:30.779Z,95497.00
2017-08-13T22:52:58.366Z,95508.58
2017-08-13T22:55:25.883Z,95513.00
2017-08-13T22:57:53.464Z,95518.84
2017-08-13T23:00:21.116Z,95520.73
2017-08-13T23:02:48.937Z,95520.60
2017-08-13T23:05:16.468Z,95515.87
2017-08-13T23:07:44.008Z,95520.20
2017-08-13T23:10:11.537Z,95521.03
2017-08-13T23:12:39.065Z,95523.59
2017-08-13T23:15:06.618Z,95532.90
2017-08-13T23:17:34.147Z,95530.39
2017-08-13T23:20:01.686Z,95522.77
2017-08-13T23:22:29.524Z,95524.37
2017-08-13T23:24:57.079Z,95524.19
2017-08-13T23:27:24.620Z,95522.84
2017-08-13T23:29:52.217Z,95513.37
2017-08-13T23:32:19.757Z,95514.33
2017-08-13T23:34:47.267Z,95512.72
2017-08-13T23:37:14.790Z,95513.30
2017-08-13T23:39:42.338Z,95520.34
2017-08-13T23:42:09.864Z,95521.58
2017-08-13T23:44:37.620Z,95522.53
2017-08-13T23:47:05.175Z,95523.02
2017-08-13T23:49:32.935Z,95511.99
2017-08-13T23:52:00.471Z,95508.06
2017-08-13T23:54:28.091Z,95502.08
2017-08-13T23:56:55.602Z,95501.86
2017-08-13T23:59:23.131Z,95507.89
